createdAt,value
2017-11-18T00:01:10.975Z,89.84
2017-11-18T00:03:39.272Z,89.75
2017-11-18T00:06:07.177Z,89.44
2017-11-18T00:08:35.210Z,88.81
2017-11-18T00:11:03.108Z,88.54
2017-11-18T00:13:31.029Z,88.58
2017-11-18T00:15:59.638Z,88.40
2017-11-18T00:18:27.558Z,88.11
2017-11-18T00:20:55.582Z,87.88
2017-11-18T00:23:23.478Z,87.81
2017-11-18T00:25:51.410Z,87.50
2017-11-18T00:28:19.336Z,87.41
2017-11-18T00:30:47.253Z,87.34
2017-11-18T00:33:15.225Z,87.33
2017-11-18T00:35:43.137Z,87.25
2017-11-18T00:38:11.046Z,86.69
2017-11-18T00:40:38.979Z,87.29
2017-11-18T00:43:06.926Z,87.54
2017-11-18T00:45:34.892Z,87.54
2017-11-18T00:48:02.864Z,87.44
2017-11-18T00:50:30.778Z,87.04
2017-11-18T00:52:58.685Z,86.87
2017-11-18T00:55:26.598Z,86.71
2017-11-18T00:57:54.915Z,86.68
2017-11-18T01:00:22.812Z,86.80
2017-11-18T01:02:50.745Z,86.82
2017-11-18T01:05:18.668Z,86.89
2017-11-18T01:07:46.737Z,87.30
2017-11-18T01:10:14.658Z,87.15
2017-11-18T01:12:42.582Z,86.94
2017-11-18T01:15:10.909Z,87.41
2017-11-18T01:17:38.846Z,87.62
2017-11-18T01:20:07.177Z,87.75
2017-11-18T01:22:35.156Z,87.87
2017-11-18T01:25:03.105Z,87.48
2017-11-18T01:27:31.022Z,87.71
2017-11-18T01:29:59.338Z,87.81
2017-11-18T01:32:27.244Z,88.13
2017-11-18T01:34:55.220Z,88.31
2017-11-18T01:37:23.142Z,88.41
2017-11-18T01:39:51.048Z,88.27
2017-11-18T01:42:19.013Z,88.48
2017-11-18T01:44:46.985Z,88.57
2017-11-18T01:47:14.957Z,88.21
2017-11-18T01:49:42.919Z,88.00
2017-11-18T01:52:10.834Z,87.81
2017-11-18T01:54:38.760Z,87.99
2017-11-18T01:57:06.678Z,87.64
2017-11-18T01:59:34.608Z,87.57
2017-11-18T02:02:02.526Z,87.76
2017-11-18T02:04:30.446Z,87.82
2017-11-18T02:06:58.746Z,87.98
2017-11-18T02:09:26.690Z,88.30
2017-11-18T02:11:55.010Z,88.23
2017-11-18T02:14:22.920Z,88.07
2017-11-18T02:16:50.852Z,88.11
2017-11-18T02:19:18.780Z,88.44
2017-11-18T02:21:47.104Z,88.43
2017-11-18T02:24:15.076Z,89.04
2017-11-18T02:26:42.992Z,88.96
2017-11-18T02:29:11.364Z,89.17
2017-11-18T02:31:39.282Z,89.54
2017-11-18T02:34:07.205Z,89.75
2017-11-18T02:36:35.525Z,89.87
2017-11-18T02:39:03.435Z,89.74
2017-11-18T02:41:31.369Z,89.69
2017-11-18T02:43:59.276Z,89.39
2017-11-18T02:46:27.229Z,89.25
2017-11-18T02:48:55.148Z,89.29
2017-11-18T02:51:23.072Z,89.09
2017-11-18T02:53:51.062Z,88.68
2017-11-18T02:56:19.441Z,88.43
2017-11-18T02:58:47.758Z,88.58
2017-11-18T03:01:15.704Z,88.33
2017-11-18T03:03:43.632Z,88.82
2017-11-18T03:06:11.601Z,88.46
2017-11-18T03:08:39.578Z,88.41
2017-11-18T03:11:07.491Z,88.54
2017-11-18T03:13:35.504Z,88.02
2017-11-18T03:16:03.848Z,88.48
2017-11-18T03:18:31.866Z,88.52
2017-11-18T03:20:59.777Z,88.13
2017-11-18T03:23:27.809Z,87.79
2017-11-18T03:25:55.714Z,87.39
2017-11-18T03:28:24.650Z,87.06
2017-11-18T03:30:52.594Z,86.63
2017-11-18T03:33:20.591Z,86.18
2017-11-18T03:35:48.563Z,85.95
2017-11-18T03:38:16.493Z,85.45
2017-11-18T03:40:44.402Z,85.26
2017-11-18T03:43:12.437Z,85.22
2017-11-18T03:45:40.337Z,84.90
2017-11-18T03:48:08.238Z,84.59
2017-11-18T03:50:36.177Z,84.27
2017-11-18T03:53:04.077Z,84.15
2017-11-18T03:55:32.012Z,84.26
2017-11-18T03:57:59.913Z,84.43
2017-11-18T04:00:27.843Z,84.29
2017-11-18T04:02:55.744Z,83.76
2017-11-18T04:05:24.100Z,83.58
2017-11-18T04:07:52.069Z,83.46
2017-11-18T04:10:19.988Z,83.38
2017-11-18T04:12:47.993Z,83.24
2017-11-18T04:15:15.907Z,82.90
2017-11-18T04:17:43.809Z,82.65
2017-11-18T04:20:11.805Z,82.86
2017-11-18T04:22:39.715Z,82.78
2017-11-18T04:25:07.614Z,82.48
2017-11-18T04:27:35.711Z,82.34
2017-11-18T04:30:03.698Z,82.33
2017-11-18T04:32:32.025Z,82.01
2017-11-18T04:34:59.936Z,82.25
2017-11-18T04:37:27.846Z,81.86
2017-11-18T04:39:55.761Z,82.08
2017-11-18T04:42:23.661Z,82.03
2017-11-18T04:44:52.100Z,81.75
2017-11-18T04:47:20.082Z,81.73
2017-11-18T04:49:48.014Z,82.25
2017-11-18T04:52:16.014Z,82.21
2017-11-18T04:54:43.942Z,82.62
2017-11-18T04:57:11.953Z,82.33
2017-11-18T04:59:39.861Z,82.28
2017-11-18T05:02:07.769Z,82.06
2017-11-18T05:04:35.697Z,82.02
2017-11-18T05:07:03.677Z,81.81
2017-11-18T05:09:31.633Z,81.58
2017-11-18T05:11:59.576Z,81.79
2017-11-18T05:14:27.539Z,81.83
2017-11-18T05:16:55.440Z,81.83
2017-11-18T05:19:23.358Z,81.71
2017-11-18T05:21:51.275Z,81.65
2017-11-18T05:24:19.200Z,81.83
2017-11-18T05:26:47.122Z,82.03
2017-11-18T05:29:15.034Z,81.80
2017-11-18T05:31:42.945Z,81.93
2017-11-18T05:34:10.882Z,81.61
2017-11-18T05:36:38.777Z,81.92
2017-11-18T05:39:06.809Z,81.55
2017-11-18T05:41:34.718Z,81.33
2017-11-18T05:44:02.623Z,81.25
2017-11-18T05:46:30.671Z,81.08
2017-11-18T05:48:58.605Z,80.75
2017-11-18T05:51:26.922Z,81.14
2017-11-18T05:53:54.826Z,81.29
2017-11-18T05:56:22.746Z,81.43
2017-11-18T05:58:50.651Z,81.42
2017-11-18T06:01:18.638Z,81.09
2017-11-18T06:03:46.608Z,81.01
2017-11-18T06:06:14.585Z,81.06
2017-11-18T06:08:42.485Z,81.27
2017-11-18T06:11:10.402Z,81.02
2017-11-18T06:13:38.317Z,81.14
2017-11-18T06:16:06.237Z,81.35
2017-11-18T06:18:34.148Z,82.00
2017-11-18T06:21:02.076Z,81.98
2017-11-18T06:23:29.996Z,82.59
2017-11-18T06:25:57.962Z,83.48
2017-11-18T06:28:25.889Z,83.46
2017-11-18T06:30:53.807Z,83.08
2017-11-18T06:33:21.768Z,83.19
2017-11-18T06:35:49.785Z,83.14
2017-11-18T06:38:17.688Z,83.48
2017-11-18T06:40:46.021Z,83.68
2017-11-18T06:43:13.938Z,83.72
2017-11-18T06:45:42.256Z,83.64
2017-11-18T06:48:10.253Z,84.03
2017-11-18T06:50:39.573Z,84.20
2017-11-18T06:53:07.938Z,84.18
2017-11-18T06:55:35.857Z,84.21
2017-11-18T06:58:03.781Z,84.38
2017-11-18T07:00:32.107Z,84.67
2017-11-18T07:03:00.014Z,84.64
2017-11-18T07:05:27.946Z,84.41
2017-11-18T07:07:55.870Z,84.67
2017-11-18T07:10:24.230Z,84.51
2017-11-18T07:12:52.142Z,84.64
2017-11-18T07:15:20.054Z,84.49
2017-11-18T07:17:47.985Z,83.82
2017-11-18T07:20:15.903Z,82.53
2017-11-18T07:22:43.864Z,80.30
2017-11-18T07:25:11.785Z,75.71
2017-11-18T07:27:39.691Z,71.54
2017-11-18T07:30:07.622Z,67.32
2017-11-18T07:32:35.536Z,63.10
2017-11-18T07:35:03.501Z,61.42
2017-11-18T07:37:31.429Z,62.71
2017-11-18T07:39:59.346Z,63.91
2017-11-18T07:42:27.281Z,64.82
2017-11-18T07:44:55.281Z,67.05
2017-11-18T07:47:23.206Z,68.07
2017-11-18T07:49:51.117Z,69.37
2017-11-18T07:52:19.029Z,70.78
2017-11-18T07:54:46.952Z,71.65
2017-11-18T07:57:15.341Z,71.79
2017-11-18T07:59:43.868Z,72.93
2017-11-18T08:02:12.245Z,72.81
2017-11-18T08:04:40.152Z,73.62
2017-11-18T08:07:08.093Z,74.47
2017-11-18T08:09:35.994Z,74.46
2017-11-18T08:12:03.918Z,74.63
2017-11-18T08:14:31.834Z,74.64
2017-11-18T08:16:59.809Z,74.79
2017-11-18T08:19:27.765Z,75.07
2017-11-18T08:21:55.667Z,75.20
2017-11-18T08:24:23.970Z,75.58
2017-11-18T08:26:51.985Z,75.70
2017-11-18T08:29:19.964Z,75.51
2017-11-18T08:31:47.880Z,75.52
2017-11-18T08:34:15.821Z,74.93
2017-11-18T08:36:44.127Z,74.65
2017-11-18T08:39:12.142Z,74.70
2017-11-18T08:41:40.110Z,74.30
2017-11-18T08:44:08.045Z,74.43
2017-11-18T08:46:36.214Z,73.59
2017-11-18T08:49:04.119Z,73.05
2017-11-18T08:51:32.029Z,73.01
2017-11-18T08:53:59.945Z,73.29
2017-11-18T08:56:27.869Z,73.00
2017-11-18T08:58:55.786Z,72.85
2017-11-18T09:01:23.756Z,72.68
2017-11-18T09:03:51.675Z,72.68
2017-11-18T09:06:19.578Z,72.69
2017-11-18T09:08:47.521Z,73.00
2017-11-18T09:11:15.424Z,72.93
2017-11-18T09:13:43.317Z,72.84
2017-11-18T09:16:11.625Z,72.72
2017-11-18T09:18:39.541Z,72.68
2017-11-18T09:21:07.502Z,72.94
2017-11-18T09:23:35.415Z,73.22
2017-11-18T09:26:03.789Z,72.71
2017-11-18T09:28:32.110Z,72.57
2017-11-18T09:31:00.042Z,72.84
2017-11-18T09:33:27.978Z,72.50
2017-11-18T09:35:55.918Z,72.48
2017-11-18T09:38:23.820Z,72.67
2017-11-18T09:40:51.734Z,72.68
2017-11-18T09:43:19.638Z,72.16
2017-11-18T09:45:47.616Z,71.42
2017-11-18T09:48:15.587Z,71.75
2017-11-18T09:50:43.557Z,70.87
2017-11-18T09:53:11.535Z,70.41
2017-11-18T09:55:39.850Z,70.45
2017-11-18T09:58:07.799Z,70.19
2017-11-18T10:00:36.111Z,70.09
2017-11-18T10:03:04.062Z,69.89
2017-11-18T10:05:32.059Z,69.62
2017-11-18T10:07:59.963Z,69.46
2017-11-18T10:10:27.943Z,68.94
2017-11-18T10:12:56.268Z,69.17
2017-11-18T10:15:24.170Z,68.93
2017-11-18T10:17:52.150Z,68.58
2017-11-18T10:20:20.463Z,68.23
2017-11-18T10:22:48.498Z,68.24
2017-11-18T10:25:16.801Z,67.94
2017-11-18T10:27:44.735Z,67.66
2017-11-18T10:30:12.708Z,67.37
2017-11-18T10:32:40.658Z,67.64
2017-11-18T10:35:08.590Z,67.72
2017-11-18T10:37:36.518Z,67.66
2017-11-18T10:40:04.817Z,67.65
2017-11-18T10:42:32.752Z,67.99
2017-11-18T10:45:00.720Z,67.95
2017-11-18T10:47:28.788Z,68.17
2017-11-18T10:49:57.249Z,68.32
2017-11-18T10:52:25.157Z,68.54
2017-11-18T10:54:53.464Z,68.80
2017-11-18T10:57:21.390Z,68.94
2017-11-18T10:59:49.323Z,68.79
2017-11-18T11:02:17.306Z,68.77
2017-11-18T11:04:45.216Z,69.03
2017-11-18T11:07:13.526Z,69.05
2017-11-18T11:09:41.490Z,69.17
2017-11-18T11:12:09.414Z,69.09
2017-11-18T11:14:37.893Z,69.15
2017-11-18T11:17:06.208Z,69.28
2017-11-18T11:19:34.134Z,69.64
2017-11-18T11:22:02.129Z,69.44
2017-11-18T11:24:30.080Z,69.13
2017-11-18T11:26:57.984Z,69.13
2017-11-18T11:29:26.107Z,68.79
2017-11-18T11:31:54.175Z,68.65
2017-11-18T11:34:22.282Z,68.82
2017-11-18T11:36:50.212Z,68.86
2017-11-18T11:39:18.241Z,68.57
2017-11-18T11:41:46.177Z,68.47
2017-11-18T11:44:14.136Z,68.26
2017-11-18T11:46:42.089Z,67.93
2017-11-18T11:49:10.054Z,68.08
2017-11-18T11:51:38.875Z,68.15
2017-11-18T11:54:07.269Z,67.49
2017-11-18T11:56:35.386Z,67.04
2017-11-18T11:59:03.276Z,66.76
2017-11-18T12:01:31.214Z,66.42
2017-11-18T12:03:59.261Z,66.00
2017-11-18T12:06:27.175Z,66.04
2017-11-18T12:08:55.098Z,65.31
2017-11-18T12:11:22.994Z,65.19
2017-11-18T12:13:50.985Z,64.68
2017-11-18T12:16:19.316Z,64.80
2017-11-18T12:18:47.333Z,64.43
2017-11-18T12:21:15.316Z,64.41
2017-11-18T12:23:43.626Z,64.83
2017-11-18T12:26:11.545Z,64.44
2017-11-18T12:28:39.605Z,64.45
2017-11-18T12:31:07.514Z,63.88
2017-11-18T12:33:35.830Z,63.24
2017-11-18T12:36:03.735Z,63.54
2017-11-18T12:38:32.060Z,62.99
2017-11-18T12:40:59.970Z,62.97
2017-11-18T12:43:27.943Z,62.77
2017-11-18T12:45:55.880Z,62.62
2017-11-18T12:48:23.832Z,62.62
2017-11-18T12:50:51.771Z,62.72
2017-11-18T12:53:20.072Z,62.55
2017-11-18T12:55:48.855Z,63.31
2017-11-18T12:58:16.784Z,63.50
2017-11-18T13:00:44.846Z,63.79
2017-11-18T13:03:13.126Z,63.87
2017-11-18T13:05:41.085Z,64.14
2017-11-18T13:08:09.068Z,64.20
2017-11-18T13:10:37.035Z,63.92
2017-11-18T13:13:04.941Z,64.32
2017-11-18T13:15:32.860Z,64.48
2017-11-18T13:18:00.842Z,64.46
2017-11-18T13:20:28.802Z,63.95
2017-11-18T13:22:56.769Z,64.15
2017-11-18T13:25:24.695Z,64.44
2017-11-18T13:27:52.622Z,64.63
2017-11-18T13:30:20.933Z,64.46
2017-11-18T13:32:48.963Z,64.63
2017-11-18T13:35:16.872Z,64.54
2017-11-18T13:37:44.781Z,64.62
2017-11-18T13:40:12.800Z,64.75
2017-11-18T13:42:40.677Z,64.73
2017-11-18T13:45:08.601Z,65.33
2017-11-18T13:47:36.571Z,65.03
2017-11-18T13:50:04.491Z,64.93
2017-11-18T13:52:32.416Z,64.99
2017-11-18T13:55:00.348Z,65.06
2017-11-18T13:57:28.347Z,65.49
2017-11-18T13:59:56.362Z,65.56
2017-11-18T14:02:24.264Z,65.32
2017-11-18T14:04:52.200Z,65.35
2017-11-18T14:07:20.104Z,65.52
2017-11-18T14:09:48.940Z,65.20
2017-11-18T14:12:17.274Z,64.90
2017-11-18T14:14:45.203Z,65.03
2017-11-18T14:17:13.129Z,65.10
2017-11-18T14:19:41.035Z,65.16
2017-11-18T14:22:08.942Z,65.12
2017-11-18T14:24:36.861Z,65.35
2017-11-18T14:27:04.897Z,65.65
2017-11-18T14:29:32.833Z,66.25
2017-11-18T14:32:00.829Z,67.14
2017-11-18T14:34:28.741Z,67.22
2017-11-18T14:36:56.642Z,67.31
2017-11-18T14:39:24.542Z,67.88
2017-11-18T14:41:52.464Z,68.25
2017-11-18T14:44:20.456Z,68.24
2017-11-18T14:46:48.448Z,68.92
2017-11-18T14:49:16.412Z,70.01
2017-11-18T14:51:44.384Z,70.36
2017-11-18T14:54:12.314Z,70.49
2017-11-18T14:56:40.217Z,71.48
2017-11-18T14:59:08.123Z,71.14
2017-11-18T15:01:36.070Z,71.58
2017-11-18T15:04:04.372Z,73.04
2017-11-18T15:06:32.298Z,73.13
2017-11-18T15:09:00.218Z,75.83
2017-11-18T15:11:28.175Z,77.96
2017-11-18T15:13:56.116Z,79.32
2017-11-18T15:16:30.559Z,80.43
2017-11-18T15:22:16.635Z,84.14
2017-11-18T15:24:51.091Z,85.53
2017-11-18T15:27:25.118Z,85.13
2017-11-18T15:33:01.855Z,85.44
2017-11-18T15:35:31.574Z,85.34
2017-11-18T15:38:04.979Z,85.40
2017-11-18T15:40:32.893Z,85.74
2017-11-18T15:43:02.172Z,85.51
2017-11-18T15:45:34.174Z,85.58
2017-11-18T15:48:07.830Z,86.00
2017-11-18T15:50:50.803Z,85.68
2017-11-18T15:53:24.426Z,85.79
2017-11-18T15:55:58.130Z,85.43
2017-11-18T15:58:26.342Z,85.76
2017-11-18T16:04:01.588Z,87.82
2017-11-18T16:09:42.152Z,89.31
2017-11-18T16:12:10.089Z,90.29
2017-11-18T16:14:38.046Z,90.94
2017-11-18T16:17:05.947Z,91.88
2017-11-18T16:19:33.865Z,92.69
2017-11-18T16:22:01.768Z,92.29
2017-11-18T16:24:29.771Z,93.45
2017-11-18T16:26:57.674Z,93.62
2017-11-18T16:29:25.590Z,93.77
2017-11-18T16:31:53.514Z,93.76
2017-11-18T16:34:21.530Z,93.79
2017-11-18T16:36:49.498Z,93.97
2017-11-18T16:39:17.397Z,93.57
2017-11-18T16:41:45.759Z,93.31
2017-11-18T16:44:13.672Z,93.39
2017-11-18T16:46:41.582Z,93.18
2017-11-18T16:49:09.514Z,93.49
2017-11-18T16:51:37.514Z,93.46
2017-11-18T16:54:05.432Z,93.25
2017-11-18T16:56:33.340Z,93.24
2017-11-18T16:59:01.335Z,93.33
2017-11-18T17:01:29.259Z,93.09
2017-11-18T17:03:57.297Z,92.92
2017-11-18T17:06:25.617Z,92.73
2017-11-18T17:08:53.577Z,93.14
2017-11-18T17:11:21.611Z,93.17
2017-11-18T17:13:49.951Z,93.04
2017-11-18T17:16:17.880Z,93.14
2017-11-18T17:18:45.919Z,93.42
2017-11-18T17:21:14.277Z,93.47
2017-11-18T17:23:42.206Z,93.58
2017-11-18T17:26:10.143Z,93.46
2017-11-18T17:28:38.469Z,93.27
2017-11-18T17:31:06.401Z,93.66
2017-11-18T17:33:34.321Z,93.56
2017-11-18T17:36:02.280Z,93.43
2017-11-18T17:38:30.231Z,93.15
2017-11-18T17:40:58.159Z,92.96
2017-11-18T17:43:26.471Z,92.88
2017-11-18T17:45:54.466Z,92.88
2017-11-18T17:48:22.561Z,93.17
2017-11-18T17:50:50.501Z,92.90
2017-11-18T17:53:18.422Z,92.78
2017-11-18T17:55:46.759Z,92.98
2017-11-18T17:58:14.701Z,92.92
2017-11-18T18:00:42.617Z,92.87
2017-11-18T18:03:10.972Z,92.91
2017-11-18T18:05:38.927Z,92.77
2017-11-18T18:08:06.916Z,92.55
2017-11-18T18:10:34.847Z,92.18
2017-11-18T18:13:02.793Z,91.80
2017-11-18T18:15:30.749Z,91.70
2017-11-18T18:17:59.140Z,91.50
2017-11-18T18:20:27.458Z,91.15
2017-11-18T18:22:55.382Z,90.66
2017-11-18T18:25:23.714Z,90.77
2017-11-18T18:27:51.637Z,90.70
2017-11-18T18:30:19.575Z,90.63
2017-11-18T18:32:47.575Z,90.40
2017-11-18T18:35:15.502Z,90.03
2017-11-18T18:37:43.477Z,89.95
2017-11-18T18:40:11.445Z,89.72
2017-11-18T18:42:39.468Z,89.69
2017-11-18T18:45:07.380Z,89.57
2017-11-18T18:47:35.289Z,89.55
2017-11-18T18:50:03.211Z,89.55
2017-11-18T18:52:31.147Z,89.03
2017-11-18T18:54:59.205Z,89.26
2017-11-18T18:57:27.126Z,89.31
2017-11-18T18:59:55.059Z,89.28
2017-11-18T19:02:22.992Z,89.08
2017-11-18T19:04:50.942Z,88.98
2017-11-18T19:07:18.851Z,89.67
2017-11-18T19:09:46.763Z,89.46
2017-11-18T19:12:14.691Z,89.10
2017-11-18T19:14:42.659Z,89.59
2017-11-18T19:17:10.605Z,89.78
2017-11-18T19:19:38.542Z,89.37
2017-11-18T19:22:06.475Z,88.97
2017-11-18T19:24:34.407Z,88.67
2017-11-18T19:27:02.354Z,88.96
2017-11-18T19:29:30.406Z,89.10
2017-11-18T19:31:58.355Z,89.25
2017-11-18T19:34:26.270Z,89.29
2017-11-18T19:36:54.232Z,89.64
2017-11-18T19:39:22.175Z,89.47
2017-11-18T19:41:50.148Z,89.67
2017-11-18T19:44:18.080Z,89.85
2017-11-18T19:46:45.993Z,89.81
2017-11-18T19:49:13.975Z,89.66
2017-11-18T19:51:43.080Z,89.90
2017-11-18T19:54:11.405Z,89.73
2017-11-18T19:56:39.324Z,89.74
2017-11-18T19:59:07.268Z,89.55
2017-11-18T20:01:35.191Z,89.60
2017-11-18T20:04:03.158Z,89.46
2017-11-18T20:06:31.101Z,89.68
2017-11-18T20:08:59.427Z,89.80
2017-11-18T20:11:27.373Z,89.83
2017-11-18T20:13:56.209Z,89.78
2017-11-18T20:16:24.150Z,90.14
2017-11-18T20:18:52.103Z,89.97
2017-11-18T20:21:20.020Z,89.65
2017-11-18T20:23:48.032Z,89.84
2017-11-18T20:26:16.087Z,90.07
2017-11-18T20:28:44.016Z,90.17
2017-11-18T20:31:11.994Z,90.23
2017-11-18T20:33:39.897Z,90.50
2017-11-18T20:36:07.823Z,90.45
2017-11-18T20:38:35.752Z,90.74
2017-11-18T20:41:03.670Z,90.80
2017-11-18T20:43:32.079Z,91.05
2017-11-18T20:46:00.043Z,90.99
2017-11-18T20:48:27.971Z,90.80
2017-11-18T20:50:55.925Z,90.90
2017-11-18T20:53:23.844Z,90.76
2017-11-18T20:55:52.227Z,90.84
2017-11-18T20:58:20.651Z,90.74
2017-11-18T21:00:48.572Z,90.43
2017-11-18T21:03:16.998Z,90.41
2017-11-18T21:05:44.921Z,89.95
2017-11-18T21:08:12.857Z,89.68
2017-11-18T21:10:40.779Z,89.46
2017-11-18T21:13:08.732Z,89.40
2017-11-18T21:15:37.049Z,89.35
2017-11-18T21:18:04.958Z,89.35
2017-11-18T21:20:33.287Z,89.23
2017-11-18T21:23:01.290Z,89.25
2017-11-18T21:25:29.210Z,89.09
2017-11-18T21:27:57.127Z,89.06
2017-11-18T21:30:25.054Z,89.02
2017-11-18T21:32:52.992Z,88.86
2017-11-18T21:35:20.901Z,89.01
2017-11-18T21:37:48.853Z,88.91
2017-11-18T21:40:16.782Z,88.86
2017-11-18T21:42:45.663Z,88.89
2017-11-18T21:45:13.595Z,89.16
2017-11-18T21:47:41.521Z,89.15
2017-11-18T21:50:09.462Z,88.95
2017-11-18T21:52:37.392Z,89.15
2017-11-18T21:55:05.315Z,89.13
2017-11-18T21:57:33.663Z,89.06
2017-11-18T22:00:01.618Z,88.90
2017-11-18T22:02:29.621Z,88.89
2017-11-18T22:04:57.614Z,88.94
2017-11-18T22:07:25.965Z,88.82
2017-11-18T22:09:53.889Z,88.80
2017-11-18T22:12:21.796Z,88.93
2017-11-18T22:14:49.702Z,88.93
2017-11-18T22:17:17.631Z,88.79
2017-11-18T22:19:45.537Z,88.49
2017-11-18T22:22:13.512Z,88.40
2017-11-18T22:24:41.421Z,88.25
2017-11-18T22:27:09.444Z,88.29
2017-11-18T22:29:37.400Z,88.38
2017-11-18T22:32:05.390Z,88.30
2017-11-18T22:34:33.321Z,87.98
2017-11-18T22:37:01.239Z,88.05
2017-11-18T22:39:29.149Z,88.01
2017-11-18T22:41:57.080Z,87.88
2017-11-18T22:44:25.049Z,88.08
2017-11-18T22:46:52.983Z,87.89
2017-11-18T22:49:21.343Z,87.86
2017-11-18T22:51:49.284Z,88.00
2017-11-18T22:54:17.213Z,87.94
2017-11-18T22:56:45.141Z,87.54
2017-11-18T22:59:13.057Z,87.39
2017-11-18T23:01:40.961Z,87.34
2017-11-18T23:04:08.889Z,87.40
2017-11-18T23:06:36.853Z,87.46
2017-11-18T23:09:04.824Z,87.33
2017-11-18T23:11:32.790Z,87.46
2017-11-18T23:14:00.724Z,87.28
2017-11-18T23:16:28.647Z,86.92
2017-11-18T23:18:56.565Z,86.77
2017-11-18T23:21:24.482Z,86.54
2017-11-18T23:23:52.444Z,86.65
2017-11-18T23:26:20.349Z,86.51
2017-11-18T23:28:48.321Z,86.63
2017-11-18T23:31:16.261Z,86.38
2017-11-18T23:33:44.171Z,86.19
2017-11-18T23:36:12.139Z,86.07
2017-11-18T23:38:40.076Z,85.93
2017-11-18T23:41:08.023Z,86.03
2017-11-18T23:43:35.951Z,86.02
2017-11-18T23:46:03.884Z,86.09
2017-11-18T23:48:31.825Z,85.93
2017-11-18T23:50:59.746Z,85.77
2017-11-18T23:53:27.691Z,85.66
2017-11-18T23:55:55.631Z,85.72
2017-11-18T23:58:23.553Z,85.75
